sensor_id;sensor_type;location;lat;lon;timestamp;temperature;humidity
17845;DHT22;9047;53.486;10.218;2023-04-03T00:00:18;0.20;99.90
17845;DHT22;9047;53.486;10.218;2023-04-03T00:02:48;0.20;99.90
17845;DHT22;9047;53.486;10.218;2023-04-03T00:05:20;0.20;99.90
17845;DHT22;9047;53.486;10.218;2023-04-03T00:07:50;0.10;99.90
17845;DHT22;9047;53.486;10.218;2023-04-03T00:10:20;0.10;99.90
17845;DHT22;9047;53.486;10.218;2023-04-03T00:12:51;0.10;99.90
17845;DHT22;9047;53.486;10.218;2023-04-03T00:15:18;0.10;99.90
17845;DHT22;9047;53.486;10.218;2023-04-03T00:17:55;0.00;99.90
17845;DHT22;9047;53.486;10.218;2023-04-03T00:20:22;0.10;99.90
17845;DHT22;9047;53.486;10.218;2023-04-03T00:22:53;0.10;99.90
17845;DHT22;9047;53.486;10.218;2023-04-03T00:25:22;0.10;99.90
17845;DHT22;9047;53.486;10.218;2023-04-03T00:27:55;0.10;99.90
17845;DHT22;9047;53.486;10.218;2023-04-03T00:30:23;0.10;99.90
17845;DHT22;9047;53.486;10.218;2023-04-03T00:32:54;0.10;99.90
17845;DHT22;9047;53.486;10.218;2023-04-03T00:35:26;0.10;99.90
17845;DHT22;9047;53.486;10.218;2023-04-03T00:37:57;0.10;99.90
17845;DHT22;9047;53.486;10.218;2023-04-03T00:40:27;0.00;99.90
17845;DHT22;9047;53.486;10.218;2023-04-03T00:43:11;0.00;99.90
17845;DHT22;9047;53.486;10.218;2023-04-03T00:45:40;0.00;99.90
17845;DHT22;9047;53.486;10.218;2023-04-03T00:48:15;0.00;99.90
17845;DHT22;9047;53.486;10.218;2023-04-03T00:50:47;0.00;99.90
17845;DHT22;9047;53.486;10.218;2023-04-03T00:53:19;0.00;99.90
17845;DHT22;9047;53.486;10.218;2023-04-03T00:55:52;0.00;99.90
17845;DHT22;9047;53.486;10.218;2023-04-03T00:58:27;0.00;99.90
17845;DHT22;9047;53.486;10.218;2023-04-03T01:00:59;0.00;99.90
17845;DHT22;9047;53.486;10.218;2023-04-03T01:03:30;0.00;99.90
17845;DHT22;9047;53.486;10.218;2023-04-03T01:05:58;0.00;99.90
17845;DHT22;9047;53.486;10.218;2023-04-03T01:08:30;-0.10;99.90
17845;DHT22;9047;53.486;10.218;2023-04-03T01:11:02;-0.10;99.90
17845;DHT22;9047;53.486;10.218;2023-04-03T01:13:35;-0.10;99.90
17845;DHT22;9047;53.486;10.218;2023-04-03T01:16:03;-0.10;99.90
17845;DHT22;9047;53.486;10.218;2023-04-03T01:18:37;-0.10;99.90
17845;DHT22;9047;53.486;10.218;2023-04-03T01:24:27;-0.10;99.90
17845;DHT22;9047;53.486;10.218;2023-04-03T01:26:58;-0.10;99.90
17845;DHT22;9047;53.486;10.218;2023-04-03T01:29:30;-0.10;99.90
17845;DHT22;9047;53.486;10.218;2023-04-03T01:32:14;-0.10;99.90
17845;DHT22;9047;53.486;10.218;2023-04-03T01:34:46;-0.10;99.90
17845;DHT22;9047;53.486;10.218;2023-04-03T01:37:16;-0.10;99.90
17845;DHT22;9047;53.486;10.218;2023-04-03T01:39:47;-0.10;99.90
17845;DHT22;9047;53.486;10.218;2023-04-03T01:42:18;-0.10;99.90
17845;DHT22;9047;53.486;10.218;2023-04-03T01:44:45;0.00;99.90
17845;DHT22;9047;53.486;10.218;2023-04-03T01:47:18;-0.10;99.90
17845;DHT22;9047;53.486;10.218;2023-04-03T01:49:52;-0.10;99.90
17845;DHT22;9047;53.486;10.218;2023-04-03T01:52:21;-0.10;99.90
17845;DHT22;9047;53.486;10.218;2023-04-03T01:54:49;-0.10;99.90
17845;DHT22;9047;53.486;10.218;2023-04-03T01:57:17;-0.10;99.90
17845;DHT22;9047;53.486;10.218;2023-04-03T01:59:48;-0.10;99.90
17845;DHT22;9047;53.486;10.218;2023-04-03T02:02:32;-0.10;99.90
17845;DHT22;9047;53.486;10.218;2023-04-03T02:05:03;-0.10;99.90
17845;DHT22;9047;53.486;10.218;2023-04-03T02:07:31;-0.10;99.90
17845;DHT22;9047;53.486;10.218;2023-04-03T02:09:58;-0.10;99.90
17845;DHT22;9047;53.486;10.218;2023-04-03T02:12:28;-0.10;99.90
17845;DHT22;9047;53.486;10.218;2023-04-03T02:14:57;-0.10;99.90
17845;DHT22;9047;53.486;10.218;2023-04-03T02:17:24;-0.10;99.90
17845;DHT22;9047;53.486;10.218;2023-04-03T02:19:58;-0.10;99.90
17845;DHT22;9047;53.486;10.218;2023-04-03T02:22:28;0.00;99.90
17845;DHT22;9047;53.486;10.218;2023-04-03T02:25:02;-0.10;99.90
17845;DHT22;9047;53.486;10.218;2023-04-03T02:27:31;-0.10;99.90
17845;DHT22;9047;53.486;10.218;2023-04-03T02:30:06;-0.10;99.90
17845;DHT22;9047;53.486;10.218;2023-04-03T02:32:36;-0.10;99.90
17845;DHT22;9047;53.486;10.218;2023-04-03T02:35:09;-0.10;99.90
17845;DHT22;9047;53.486;10.218;2023-04-03T02:37:36;-0.10;99.90
17845;DHT22;9047;53.486;10.218;2023-04-03T02:40:05;-0.10;99.90
17845;DHT22;9047;53.486;10.218;2023-04-03T02:42:35;-0.10;99.90
17845;DHT22;9047;53.486;10.218;2023-04-03T02:45:07;-0.10;99.90
17845;DHT22;9047;53.486;10.218;2023-04-03T02:47:37;-0.10;99.90
17845;DHT22;9047;53.486;10.218;2023-04-03T02:50:09;-0.20;99.90
17845;DHT22;9047;53.486;10.218;2023-04-03T02:52:38;-0.20;99.90
17845;DHT22;9047;53.486;10.218;2023-04-03T02:55:06;-0.10;99.90
17845;DHT22;9047;53.486;10.218;2023-04-03T02:57:35;-0.20;99.90
17845;DHT22;9047;53.486;10.218;2023-04-03T03:00:06;-0.20;99.90
17845;DHT22;9047;53.486;10.218;2023-04-03T03:02:36;-0.30;99.90
17845;DHT22;9047;53.486;10.218;2023-04-03T03:05:18;-0.30;99.90
17845;DHT22;9047;53.486;10.218;2023-04-03T03:07:46;-0.30;99.90
17845;DHT22;9047;53.486;10.218;2023-04-03T03:10:18;-0.30;99.90
17845;DHT22;9047;53.486;10.218;2023-04-03T03:12:50;-0.30;99.90
17845;DHT22;9047;53.486;10.218;2023-04-03T03:15:19;-0.20;99.90
17845;DHT22;9047;53.486;10.218;2023-04-03T03:18:01;-0.30;99.90
17845;DHT22;9047;53.486;10.218;2023-04-03T03:20:30;-0.30;99.90
17845;DHT22;9047;53.486;10.218;2023-04-03T03:23:00;-0.30;99.90
17845;DHT22;9047;53.486;10.218;2023-04-03T03:25:27;-0.30;99.90
17845;DHT22;9047;53.486;10.218;2023-04-03T03:27:59;-0.30;99.90
17845;DHT22;9047;53.486;10.218;2023-04-03T03:30:31;-0.30;99.90
17845;DHT22;9047;53.486;10.218;2023-04-03T03:33:02;-0.30;99.90
17845;DHT22;9047;53.486;10.218;2023-04-03T03:35:32;-0.30;99.90
17845;DHT22;9047;53.486;10.218;2023-04-03T03:38:02;-0.30;99.90
17845;DHT22;9047;53.486;10.218;2023-04-03T03:40:33;-0.30;99.90
17845;DHT22;9047;53.486;10.218;2023-04-03T03:43:08;-0.30;99.90
17845;DHT22;9047;53.486;10.218;2023-04-03T03:45:42;-0.30;99.90
17845;DHT22;9047;53.486;10.218;2023-04-03T03:48:14;-0.30;99.90
17845;DHT22;9047;53.486;10.218;2023-04-03T03:50:46;-0.30;99.90
17845;DHT22;9047;53.486;10.218;2023-04-03T03:53:18;-0.30;99.90
17845;DHT22;9047;53.486;10.218;2023-04-03T03:55:47;-0.30;99.90
17845;DHT22;9047;53.486;10.218;2023-04-03T03:58:18;-0.40;99.90
17845;DHT22;9047;53.486;10.218;2023-04-03T04:00:51;-0.40;99.90
17845;DHT22;9047;53.486;10.218;2023-04-03T04:03:22;-0.40;99.90
17845;DHT22;9047;53.486;10.218;2023-04-03T04:05:51;-0.40;99.90
17845;DHT22;9047;53.486;10.218;2023-04-03T04:08:23;-0.40;99.90
17845;DHT22;9047;53.486;10.218;2023-04-03T04:10:55;-0.40;99.90
17845;DHT22;9047;53.486;10.218;2023-04-03T04:13:31;-0.40;99.90
17845;DHT22;9047;53.486;10.218;2023-04-03T04:16:00;-0.50;99.90
17845;DHT22;9047;53.486;10.218;2023-04-03T04:18:31;-0.50;99.90
17845;DHT22;9047;53.486;10.218;2023-04-03T04:20:59;-0.50;99.90
17845;DHT22;9047;53.486;10.218;2023-04-03T04:23:27;-0.40;99.90
17845;DHT22;9047;53.486;10.218;2023-04-03T04:26:10;-0.50;99.90
17845;DHT22;9047;53.486;10.218;2023-04-03T04:28:40;-0.50;99.90
17845;DHT22;9047;53.486;10.218;2023-04-03T04:31:07;-0.50;99.90
17845;DHT22;9047;53.486;10.218;2023-04-03T04:33:39;-0.50;99.90
17845;DHT22;9047;53.486;10.218;2023-04-03T04:36:21;-0.60;99.90
17845;DHT22;9047;53.486;10.218;2023-04-03T04:38:48;-0.60;99.90
17845;DHT22;9047;53.486;10.218;2023-04-03T04:41:18;-0.60;99.90
17845;DHT22;9047;53.486;10.218;2023-04-03T04:43:48;-0.60;99.90
17845;DHT22;9047;53.486;10.218;2023-04-03T04:46:15;-0.60;99.90
17845;DHT22;9047;53.486;10.218;2023-04-03T04:48:43;-0.60;99.90
17845;DHT22;9047;53.486;10.218;2023-04-03T04:51:13;-0.60;99.90
17845;DHT22;9047;53.486;10.218;2023-04-03T04:53:42;-0.60;99.90
17845;DHT22;9047;53.486;10.218;2023-04-03T04:56:11;-0.60;99.90
17845;DHT22;9047;53.486;10.218;2023-04-03T04:58:38;-0.50;99.90
17845;DHT22;9047;53.486;10.218;2023-04-03T05:01:11;-0.50;99.90
17845;DHT22;9047;53.486;10.218;2023-04-03T05:03:41;-0.50;99.90
17845;DHT22;9047;53.486;10.218;2023-04-03T05:06:08;-0.50;99.90
17845;DHT22;9047;53.486;10.218;2023-04-03T05:08:39;-0.50;99.90
17845;DHT22;9047;53.486;10.218;2023-04-03T05:11:13;-0.50;99.90
17845;DHT22;9047;53.486;10.218;2023-04-03T05:13:40;-0.50;99.90
17845;DHT22;9047;53.486;10.218;2023-04-03T05:16:12;-0.40;99.90
17845;DHT22;9047;53.486;10.218;2023-04-03T05:18:42;-0.40;99.90
17845;DHT22;9047;53.486;10.218;2023-04-03T05:21:26;-0.40;99.90
17845;DHT22;9047;53.486;10.218;2023-04-03T05:24:00;-0.40;99.90
17845;DHT22;9047;53.486;10.218;2023-04-03T05:26:29;-0.40;99.90
17845;DHT22;9047;53.486;10.218;2023-04-03T05:28:56;-0.30;99.90
17845;DHT22;9047;53.486;10.218;2023-04-03T05:31:23;-0.20;99.90
17845;DHT22;9047;53.486;10.218;2023-04-03T05:33:50;-0.20;99.90
17845;DHT22;9047;53.486;10.218;2023-04-03T05:36:17;-0.10;99.90
17845;DHT22;9047;53.486;10.218;2023-04-03T05:38:51;-0.10;99.90
17845;DHT22;9047;53.486;10.218;2023-04-03T05:41:20;0.00;99.90
17845;DHT22;9047;53.486;10.218;2023-04-03T05:43:50;0.00;99.90
17845;DHT22;9047;53.486;10.218;2023-04-03T05:46:19;0.10;99.90
17845;DHT22;9047;53.486;10.218;2023-04-03T05:48:47;0.20;99.90
17845;DHT22;9047;53.486;10.218;2023-04-03T05:51:16;0.40;99.90
17845;DHT22;9047;53.486;10.218;2023-04-03T05:53:44;0.50;99.90
17845;DHT22;9047;53.486;10.218;2023-04-03T05:56:14;0.70;99.90
17845;DHT22;9047;53.486;10.218;2023-04-03T05:58:43;0.80;99.90
17845;DHT22;9047;53.486;10.218;2023-04-03T06:01:10;1.00;99.90
17845;DHT22;9047;53.486;10.218;2023-04-03T06:03:37;1.30;99.90
17845;DHT22;9047;53.486;10.218;2023-04-03T06:06:05;1.60;99.90
17845;DHT22;9047;53.486;10.218;2023-04-03T06:08:33;2.00;99.90
17845;DHT22;9047;53.486;10.218;2023-04-03T06:11:01;2.50;99.90
17845;DHT22;9047;53.486;10.218;2023-04-03T06:13:29;3.10;99.90
17845;DHT22;9047;53.486;10.218;2023-04-03T06:15:59;3.70;99.90
17845;DHT22;9047;53.486;10.218;2023-04-03T06:18:26;4.30;99.90
17845;DHT22;9047;53.486;10.218;2023-04-03T06:20:53;4.90;99.90
17845;DHT22;9047;53.486;10.218;2023-04-03T06:23:20;5.50;99.90
17845;DHT22;9047;53.486;10.218;2023-04-03T06:25:48;6.10;99.90
17845;DHT22;9047;53.486;10.218;2023-04-03T06:28:15;6.50;99.90
17845;DHT22;9047;53.486;10.218;2023-04-03T06:30:44;6.90;99.90
17845;DHT22;9047;53.486;10.218;2023-04-03T06:33:12;7.30;99.90
17845;DHT22;9047;53.486;10.218;2023-04-03T06:35:40;7.80;99.90
17845;DHT22;9047;53.486;10.218;2023-04-03T06:38:07;8.00;99.90
17845;DHT22;9047;53.486;10.218;2023-04-03T06:40:35;8.40;99.90
17845;DHT22;9047;53.486;10.218;2023-04-03T06:43:09;8.60;99.90
17845;DHT22;9047;53.486;10.218;2023-04-03T06:45:44;8.70;99.90
17845;DHT22;9047;53.486;10.218;2023-04-03T06:48:14;8.80;99.90
17845;DHT22;9047;53.486;10.218;2023-04-03T06:50:42;8.90;99.90
17845;DHT22;9047;53.486;10.218;2023-04-03T06:53:09;9.10;99.90
17845;DHT22;9047;53.486;10.218;2023-04-03T06:55:37;9.30;99.90
17845;DHT22;9047;53.486;10.218;2023-04-03T06:58:04;9.40;99.90
17845;DHT22;9047;53.486;10.218;2023-04-03T07:00:31;9.40;99.90
17845;DHT22;9047;53.486;10.218;2023-04-03T07:02:59;9.60;99.90
17845;DHT22;9047;53.486;10.218;2023-04-03T07:05:27;9.70;99.90
17845;DHT22;9047;53.486;10.218;2023-04-03T07:07:54;10.10;99.90
17845;DHT22;9047;53.486;10.218;2023-04-03T07:10:22;10.10;99.90
17845;DHT22;9047;53.486;10.218;2023-04-03T07:12:51;10.20;99.90
17845;DHT22;9047;53.486;10.218;2023-04-03T07:15:18;10.30;99.90
17845;DHT22;9047;53.486;10.218;2023-04-03T07:17:46;10.50;99.90
17845;DHT22;9047;53.486;10.218;2023-04-03T07:20:15;10.50;99.90
17845;DHT22;9047;53.486;10.218;2023-04-03T07:22:45;10.50;99.90
17845;DHT22;9047;53.486;10.218;2023-04-03T07:25:16;10.50;99.90
17845;DHT22;9047;53.486;10.218;2023-04-03T07:27:43;10.40;99.90
17845;DHT22;9047;53.486;10.218;2023-04-03T07:30:11;10.40;99.90
17845;DHT22;9047;53.486;10.218;2023-04-03T07:32:39;10.40;99.90
17845;DHT22;9047;53.486;10.218;2023-04-03T07:35:07;10.50;99.90
17845;DHT22;9047;53.486;10.218;2023-04-03T07:37:34;10.50;99.90
17845;DHT22;9047;53.486;10.218;2023-04-03T07:40:05;10.50;99.90
17845;DHT22;9047;53.486;10.218;2023-04-03T07:42:32;10.20;99.90
17845;DHT22;9047;53.486;10.218;2023-04-03T07:45:02;9.50;99.90
17845;DHT22;9047;53.486;10.218;2023-04-03T07:47:31;9.00;99.90
17845;DHT22;9047;53.486;10.218;2023-04-03T07:49:58;8.30;99.90
17845;DHT22;9047;53.486;10.218;2023-04-03T07:52:25;7.90;99.90
17845;DHT22;9047;53.486;10.218;2023-04-03T07:54:52;7.50;99.90
17845;DHT22;9047;53.486;10.218;2023-04-03T07:57:26;7.30;99.90
17845;DHT22;9047;53.486;10.218;2023-04-03T07:59:53;7.00;99.90
17845;DHT22;9047;53.486;10.218;2023-04-03T08:02:21;6.90;99.90
17845;DHT22;9047;53.486;10.218;2023-04-03T08:04:48;6.80;99.90
17845;DHT22;9047;53.486;10.218;2023-04-03T08:07:17;6.70;99.90
17845;DHT22;9047;53.486;10.218;2023-04-03T08:09:47;6.70;99.90
17845;DHT22;9047;53.486;10.218;2023-04-03T08:12:19;6.70;99.90
17845;DHT22;9047;53.486;10.218;2023-04-03T08:14:48;6.70;99.90
17845;DHT22;9047;53.486;10.218;2023-04-03T08:17:18;6.70;99.90
17845;DHT22;9047;53.486;10.218;2023-04-03T08:19:45;6.80;99.90
17845;DHT22;9047;53.486;10.218;2023-04-03T08:22:13;6.80;99.90
17845;DHT22;9047;53.486;10.218;2023-04-03T08:24:40;6.80;99.90
17845;DHT22;9047;53.486;10.218;2023-04-03T08:27:07;6.80;99.90
17845;DHT22;9047;53.486;10.218;2023-04-03T08:29:34;6.80;99.90
17845;DHT22;9047;53.486;10.218;2023-04-03T08:32:05;6.90;99.90
17845;DHT22;9047;53.486;10.218;2023-04-03T08:34:34;6.90;99.90
17845;DHT22;9047;53.486;10.218;2023-04-03T08:37:02;7.00;99.90
17845;DHT22;9047;53.486;10.218;2023-04-03T08:39:31;7.10;99.90
17845;DHT22;9047;53.486;10.218;2023-04-03T08:42:18;7.10;99.60
17845;DHT22;9047;53.486;10.218;2023-04-03T08:44:50;7.10;99.50
17845;DHT22;9047;53.486;10.218;2023-04-03T08:47:24;7.20;97.80
17845;DHT22;9047;53.486;10.218;2023-04-03T08:49:56;7.30;97.00
17845;DHT22;9047;53.486;10.218;2023-04-03T08:52:34;7.30;96.20
17845;DHT22;9047;53.486;10.218;2023-04-03T08:55:13;7.20;95.90
17845;DHT22;9047;53.486;10.218;2023-04-03T08:57:48;7.40;96.50
17845;DHT22;9047;53.486;10.218;2023-04-03T09:00:23;7.50;96.80
17845;DHT22;9047;53.486;10.218;2023-04-03T09:02:54;7.60;96.90
17845;DHT22;9047;53.486;10.218;2023-04-03T09:05:32;7.70;96.60
17845;DHT22;9047;53.486;10.218;2023-04-03T09:08:09;7.80;96.80
17845;DHT22;9047;53.486;10.218;2023-04-03T09:10:40;7.80;95.60
17845;DHT22;9047;53.486;10.218;2023-04-03T09:13:17;7.80;96.10
17845;DHT22;9047;53.486;10.218;2023-04-03T09:15:47;7.90;95.40
17845;DHT22;9047;53.486;10.218;2023-04-03T09:18:20;8.00;95.50
17845;DHT22;9047;53.486;10.218;2023-04-03T09:20:56;8.00;95.30
17845;DHT22;9047;53.486;10.218;2023-04-03T09:23:28;8.10;95.20
17845;DHT22;9047;53.486;10.218;2023-04-03T09:26:01;8.10;95.00
17845;DHT22;9047;53.486;10.218;2023-04-03T09:28:30;8.20;94.70
17845;DHT22;9047;53.486;10.218;2023-04-03T09:31:00;8.10;94.00
17845;DHT22;9047;53.486;10.218;2023-04-03T09:33:29;8.20;93.50
17845;DHT22;9047;53.486;10.218;2023-04-03T09:35:58;8.30;94.00
17845;DHT22;9047;53.486;10.218;2023-04-03T09:38:25;8.30;93.00
17845;DHT22;9047;53.486;10.218;2023-04-03T09:41:05;8.40;93.30
17845;DHT22;9047;53.486;10.218;2023-04-03T09:43:34;8.30;93.50
17845;DHT22;9047;53.486;10.218;2023-04-03T09:46:24;8.40;93.20
17845;DHT22;9047;53.486;10.218;2023-04-03T09:48:56;8.40;92.70
17845;DHT22;9047;53.486;10.218;2023-04-03T09:51:25;8.50;92.30
17845;DHT22;9047;53.486;10.218;2023-04-03T09:53:54;8.50;92.40
17845;DHT22;9047;53.486;10.218;2023-04-03T09:56:24;8.60;92.50
17845;DHT22;9047;53.486;10.218;2023-04-03T09:59:12;8.60;92.70
17845;DHT22;9047;53.486;10.218;2023-04-03T10:01:43;8.70;92.70
17845;DHT22;9047;53.486;10.218;2023-04-03T10:04:23;8.60;92.50
17845;DHT22;9047;53.486;10.218;2023-04-03T10:06:52;8.60;92.20
17845;DHT22;9047;53.486;10.218;2023-04-03T10:09:23;8.60;92.80
17845;DHT22;9047;53.486;10.218;2023-04-03T10:11:59;8.80;92.80
17845;DHT22;9047;53.486;10.218;2023-04-03T10:14:27;8.70;92.90
17845;DHT22;9047;53.486;10.218;2023-04-03T10:17:03;8.70;92.60
17845;DHT22;9047;53.486;10.218;2023-04-03T10:19:41;9.00;92.40
17845;DHT22;9047;53.486;10.218;2023-04-03T10:22:20;9.00;92.70
17845;DHT22;9047;53.486;10.218;2023-04-03T10:24:56;9.30;93.00
17845;DHT22;9047;53.486;10.218;2023-04-03T10:27:36;9.60;92.60
17845;DHT22;9047;53.486;10.218;2023-04-03T10:30:30;9.60;92.70
17845;DHT22;9047;53.486;10.218;2023-04-03T10:33:18;9.50;92.80
17845;DHT22;9047;53.486;10.218;2023-04-03T10:35:56;9.40;92.90
17845;DHT22;9047;53.486;10.218;2023-04-03T10:38:38;9.50;92.90
17845;DHT22;9047;53.486;10.218;2023-04-03T10:41:15;9.70;92.30
17845;DHT22;9047;53.486;10.218;2023-04-03T10:43:49;9.90;92.20
17845;DHT22;9047;53.486;10.218;2023-04-03T10:46:22;9.90;91.90
17845;DHT22;9047;53.486;10.218;2023-04-03T10:49:01;9.80;92.50
17845;DHT22;9047;53.486;10.218;2023-04-03T10:51:40;10.00;92.80
17845;DHT22;9047;53.486;10.218;2023-04-03T10:54:11;9.90;93.00
17845;DHT22;9047;53.486;10.218;2023-04-03T10:56:41;9.80;92.60
17845;DHT22;9047;53.486;10.218;2023-04-03T10:59:22;9.70;92.30
17845;DHT22;9047;53.486;10.218;2023-04-03T11:01:55;9.40;92.40
17845;DHT22;9047;53.486;10.218;2023-04-03T11:04:27;9.20;92.80
17845;DHT22;9047;53.486;10.218;2023-04-03T11:07:03;8.90;93.10
17845;DHT22;9047;53.486;10.218;2023-04-03T11:09:35;8.60;93.30
17845;DHT22;9047;53.486;10.218;2023-04-03T11:12:09;8.60;93.80
17845;DHT22;9047;53.486;10.218;2023-04-03T11:14:39;8.90;93.10
17845;DHT22;9047;53.486;10.218;2023-04-03T11:17:14;9.40;93.10
17845;DHT22;9047;53.486;10.218;2023-04-03T11:19:57;9.90;93.00
17845;DHT22;9047;53.486;10.218;2023-04-03T11:22:32;10.10;92.60
17845;DHT22;9047;53.486;10.218;2023-04-03T11:25:03;10.20;92.90
17845;DHT22;9047;53.486;10.218;2023-04-03T11:27:37;10.30;92.70
17845;DHT22;9047;53.486;10.218;2023-04-03T11:30:18;10.40;92.20
17845;DHT22;9047;53.486;10.218;2023-04-03T11:33:07;10.30;91.60
17845;DHT22;9047;53.486;10.218;2023-04-03T11:35:37;10.00;91.10
17845;DHT22;9047;53.486;10.218;2023-04-03T11:38:19;9.70;91.60
17845;DHT22;9047;53.486;10.218;2023-04-03T11:40:49;9.50;92.30
17845;DHT22;9047;53.486;10.218;2023-04-03T11:43:23;9.30;92.40
17845;DHT22;9047;53.486;10.218;2023-04-03T11:45:56;9.40;93.00
17845;DHT22;9047;53.486;10.218;2023-04-03T11:48:45;9.60;93.20
17845;DHT22;9047;53.486;10.218;2023-04-03T11:51:43;9.70;93.60
17845;DHT22;9047;53.486;10.218;2023-04-03T11:58:04;9.70;92.90
17845;DHT22;9047;53.486;10.218;2023-04-03T12:00:51;9.50;92.30
17845;DHT22;9047;53.486;10.218;2023-04-03T12:06:59;9.30;92.00
17845;DHT22;9047;53.486;10.218;2023-04-03T12:09:29;9.70;91.00
17845;DHT22;9047;53.486;10.218;2023-04-03T12:12:00;10.10;91.30
17845;DHT22;9047;53.486;10.218;2023-04-03T12:14:32;10.50;91.50
17845;DHT22;9047;53.486;10.218;2023-04-03T12:17:02;10.80;91.00
17845;DHT22;9047;53.486;10.218;2023-04-03T12:19:36;10.90;90.80
17845;DHT22;9047;53.486;10.218;2023-04-03T12:22:17;10.90;90.80
17845;DHT22;9047;53.486;10.218;2023-04-03T12:24:47;10.50;90.90
17845;DHT22;9047;53.486;10.218;2023-04-03T12:27:32;10.30;90.80
17845;DHT22;9047;53.486;10.218;2023-04-03T12:30:16;10.00;90.60
17845;DHT22;9047;53.486;10.218;2023-04-03T12:35:48;9.80;90.60
17845;DHT22;9047;53.486;10.218;2023-04-03T12:38:49;9.90;91.00
17845;DHT22;9047;53.486;10.218;2023-04-03T12:41:30;10.10;91.30
17845;DHT22;9047;53.486;10.218;2023-04-03T12:44:37;10.10;91.40
17845;DHT22;9047;53.486;10.218;2023-04-03T12:47:22;9.80;90.70
17845;DHT22;9047;53.486;10.218;2023-04-03T12:49:53;9.50;90.70
17845;DHT22;9047;53.486;10.218;2023-04-03T12:52:36;9.60;90.60
17845;DHT22;9047;53.486;10.218;2023-04-03T12:55:17;9.70;89.80
17845;DHT22;9047;53.486;10.218;2023-04-03T12:57:46;10.00;88.80
17845;DHT22;9047;53.486;10.218;2023-04-03T13:00:30;10.40;89.60
17845;DHT22;9047;53.486;10.218;2023-04-03T13:03:00;10.80;90.30
17845;DHT22;9047;53.486;10.218;2023-04-03T13:05:28;11.00;90.00
17845;DHT22;9047;53.486;10.218;2023-04-03T13:07:59;10.80;90.20
17845;DHT22;9047;53.486;10.218;2023-04-03T13:10:29;10.50;89.90
17845;DHT22;9047;53.486;10.218;2023-04-03T13:12:58;10.10;89.80
17845;DHT22;9047;53.486;10.218;2023-04-03T13:15:27;9.60;90.00
17845;DHT22;9047;53.486;10.218;2023-04-03T13:17:56;9.40;90.10
17845;DHT22;9047;53.486;10.218;2023-04-03T13:20:27;9.40;90.20
17845;DHT22;9047;53.486;10.218;2023-04-03T13:22:58;9.60;90.60
17845;DHT22;9047;53.486;10.218;2023-04-03T13:25:32;9.80;90.10
17845;DHT22;9047;53.486;10.218;2023-04-03T13:28:02;10.00;90.10
17845;DHT22;9047;53.486;10.218;2023-04-03T13:30:33;10.20;89.90
17845;DHT22;9047;53.486;10.218;2023-04-03T13:33:06;10.40;90.00
17845;DHT22;9047;53.486;10.218;2023-04-03T13:35:37;10.30;88.20
17845;DHT22;9047;53.486;10.218;2023-04-03T13:38:21;10.10;87.40
17845;DHT22;9047;53.486;10.218;2023-04-03T13:40:49;9.90;87.90
17845;DHT22;9047;53.486;10.218;2023-04-03T13:43:19;9.90;88.10
17845;DHT22;9047;53.486;10.218;2023-04-03T13:45:55;9.90;86.60
17845;DHT22;9047;53.486;10.218;2023-04-03T13:48:23;9.90;88.10
17845;DHT22;9047;53.486;10.218;2023-04-03T13:51:06;10.10;88.30
17845;DHT22;9047;53.486;10.218;2023-04-03T13:53:40;10.00;87.90
17845;DHT22;9047;53.486;10.218;2023-04-03T13:56:16;9.80;87.80
17845;DHT22;9047;53.486;10.218;2023-04-03T13:58:58;9.70;88.60
17845;DHT22;9047;53.486;10.218;2023-04-03T14:01:32;9.40;88.10
17845;DHT22;9047;53.486;10.218;2023-04-03T14:04:01;9.30;89.00
17845;DHT22;9047;53.486;10.218;2023-04-03T14:06:29;9.30;88.40
17845;DHT22;9047;53.486;10.218;2023-04-03T14:08:56;9.40;89.00
17845;DHT22;9047;53.486;10.218;2023-04-03T14:11:28;9.50;88.50
17845;DHT22;9047;53.486;10.218;2023-04-03T14:13:59;9.60;87.70
17845;DHT22;9047;53.486;10.218;2023-04-03T14:16:30;9.70;87.40
17845;DHT22;9047;53.486;10.218;2023-04-03T14:18:57;9.80;85.80
17845;DHT22;9047;53.486;10.218;2023-04-03T14:21:24;9.80;86.20
17845;DHT22;9047;53.486;10.218;2023-04-03T14:23:54;9.80;85.80
17845;DHT22;9047;53.486;10.218;2023-04-03T14:26:23;9.80;86.60
17845;DHT22;9047;53.486;10.218;2023-04-03T14:28:53;9.80;86.80
17845;DHT22;9047;53.486;10.218;2023-04-03T14:31:27;9.90;87.60
17845;DHT22;9047;53.486;10.218;2023-04-03T14:34:12;9.80;88.20
17845;DHT22;9047;53.486;10.218;2023-04-03T14:36:40;9.90;89.00
17845;DHT22;9047;53.486;10.218;2023-04-03T14:39:11;9.90;88.50
17845;DHT22;9047;53.486;10.218;2023-04-03T14:41:43;9.80;89.30
17845;DHT22;9047;53.486;10.218;2023-04-03T14:44:10;9.70;89.30
17845;DHT22;9047;53.486;10.218;2023-04-03T14:46:38;9.70;88.20
17845;DHT22;9047;53.486;10.218;2023-04-03T14:49:12;9.40;87.70
17845;DHT22;9047;53.486;10.218;2023-04-03T14:51:40;9.30;89.20
17845;DHT22;9047;53.486;10.218;2023-04-03T14:54:13;9.20;89.10
17845;DHT22;9047;53.486;10.218;2023-04-03T14:56:41;9.20;90.00
17845;DHT22;9047;53.486;10.218;2023-04-03T14:59:11;9.30;88.70
17845;DHT22;9047;53.486;10.218;2023-04-03T15:01:38;9.20;88.70
17845;DHT22;9047;53.486;10.218;2023-04-03T15:04:10;9.20;88.90
17845;DHT22;9047;53.486;10.218;2023-04-03T15:06:38;9.20;88.20
17845;DHT22;9047;53.486;10.218;2023-04-03T15:09:19;9.20;86.40
17845;DHT22;9047;53.486;10.218;2023-04-03T15:11:49;9.10;82.60
17845;DHT22;9047;53.486;10.218;2023-04-03T15:14:16;9.10;82.70
17845;DHT22;9047;53.486;10.218;2023-04-03T15:16:44;9.10;83.70
17845;DHT22;9047;53.486;10.218;2023-04-03T15:19:12;9.10;85.20
17845;DHT22;9047;53.486;10.218;2023-04-03T15:21:39;9.20;85.70
17845;DHT22;9047;53.486;10.218;2023-04-03T15:24:17;9.30;85.60
17845;DHT22;9047;53.486;10.218;2023-04-03T15:26:45;9.30;84.80
17845;DHT22;9047;53.486;10.218;2023-04-03T15:29:13;9.30;84.60
17845;DHT22;9047;53.486;10.218;2023-04-03T15:31:42;9.30;84.50
17845;DHT22;9047;53.486;10.218;2023-04-03T15:34:10;9.20;84.60
17845;DHT22;9047;53.486;10.218;2023-04-03T15:36:55;9.10;86.80
17845;DHT22;9047;53.486;10.218;2023-04-03T15:39:27;9.10;87.60
17845;DHT22;9047;53.486;10.218;2023-04-03T15:41:56;9.00;87.60
17845;DHT22;9047;53.486;10.218;2023-04-03T15:44:27;9.00;88.20
17845;DHT22;9047;53.486;10.218;2023-04-03T15:46:56;9.00;88.30
17845;DHT22;9047;53.486;10.218;2023-04-03T15:49:32;8.90;87.90
17845;DHT22;9047;53.486;10.218;2023-04-03T15:52:00;8.90;88.00
17845;DHT22;9047;53.486;10.218;2023-04-03T15:54:29;8.80;88.70
17845;DHT22;9047;53.486;10.218;2023-04-03T15:57:00;8.80;88.80
17845;DHT22;9047;53.486;10.218;2023-04-03T15:59:33;8.80;89.10
17845;DHT22;9047;53.486;10.218;2023-04-03T16:02:00;8.90;90.00
17845;DHT22;9047;53.486;10.218;2023-04-03T16:04:28;8.80;89.50
17845;DHT22;9047;53.486;10.218;2023-04-03T16:07:00;8.70;89.80
17845;DHT22;9047;53.486;10.218;2023-04-03T16:09:31;8.70;90.30
17845;DHT22;9047;53.486;10.218;2023-04-03T16:12:02;8.60;90.40
17845;DHT22;9047;53.486;10.218;2023-04-03T16:14:29;8.80;90.60
17845;DHT22;9047;53.486;10.218;2023-04-03T16:16:56;8.90;90.60
17845;DHT22;9047;53.486;10.218;2023-04-03T16:19:24;9.00;90.60
17845;DHT22;9047;53.486;10.218;2023-04-03T16:21:52;8.80;90.80